createdAt,value
2019-06-10T00:01:34.481Z,19.09
2019-06-10T00:04:05.162Z,19.09
2019-06-10T00:06:31.160Z,19.07
2019-06-10T00:08:58.393Z,18.95
2019-06-10T00:11:25.992Z,18.88
2019-06-10T00:13:53.191Z,18.90
2019-06-10T00:16:20.879Z,18.84
2019-06-10T00:18:50.848Z,18.84
2019-06-10T00:21:17.550Z,18.83
2019-06-10T00:23:44.824Z,18.82
2019-06-10T00:26:12.696Z,18.81
2019-06-10T00:28:41.886Z,18.79
2019-06-10T00:31:11.310Z,18.87
2019-06-10T00:33:38.193Z,18.82
2019-06-10T00:36:07.485Z,18.78
2019-06-10T00:38:34.749Z,18.78
2019-06-10T00:41:05.275Z,18.79
2019-06-10T00:43:31.295Z,18.82
2019-06-10T00:45:58.490Z,18.87
2019-06-10T00:48:29.135Z,18.87
2019-06-10T00:50:57.045Z,18.94
2019-06-10T00:53:24.254Z,18.89
2019-06-10T00:55:51.916Z,18.81
2019-06-10T00:58:21.455Z,18.85
2019-06-10T01:00:48.361Z,18.91
2019-06-10T01:03:15.932Z,19.00
2019-06-10T01:05:43.607Z,18.89
2019-06-10T01:08:14.030Z,18.83
2019-06-10T01:10:43.836Z,18.83
2019-06-10T01:13:11.727Z,18.68
2019-06-10T01:15:38.394Z,18.53
2019-06-10T01:18:05.627Z,18.50
2019-06-10T01:20:32.669Z,18.39
2019-06-10T01:23:01.555Z,18.22
2019-06-10T01:25:31.085Z,18.10
2019-06-10T01:28:00.503Z,18.01
2019-06-10T01:30:27.542Z,17.99
2019-06-10T01:32:55.172Z,17.97
2019-06-10T01:35:22.360Z,17.96
2019-06-10T01:37:51.876Z,18.00
2019-06-10T01:40:20.907Z,18.04
2019-06-10T01:42:50.579Z,17.98
2019-06-10T01:45:17.544Z,18.04
2019-06-10T01:47:44.638Z,18.03
2019-06-10T01:50:15.625Z,18.07
2019-06-10T01:52:41.599Z,18.27
2019-06-10T01:55:12.205Z,18.28
2019-06-10T01:57:38.375Z,18.14
2019-06-10T02:00:12.021Z,18.06
2019-06-10T02:02:35.473Z,18.00
2019-06-10T02:05:02.765Z,17.99
2019-06-10T02:07:31.797Z,18.15
2019-06-10T02:10:01.076Z,18.01
2019-06-10T02:12:28.054Z,17.91
2019-06-10T02:14:55.250Z,17.92
2019-06-10T02:17:23.824Z,17.87
2019-06-10T02:19:52.194Z,17.78
2019-06-10T02:22:23.847Z,17.90
2019-06-10T02:24:50.653Z,17.87
2019-06-10T02:27:19.541Z,17.80
2019-06-10T02:29:47.357Z,17.73
2019-06-10T02:32:20.772Z,17.74
2019-06-10T02:35:01.337Z,17.77
2019-06-10T02:37:17.008Z,17.78
2019-06-10T02:39:43.931Z,17.79
2019-06-10T02:42:30.692Z,17.76
2019-06-10T02:44:57.915Z,17.78
2019-06-10T02:47:32.106Z,17.75
2019-06-10T02:50:02.447Z,17.74
2019-06-10T02:52:32.201Z,17.67
2019-06-10T02:54:53.525Z,17.63
2019-06-10T02:57:28.822Z,17.54
2019-06-10T02:59:50.167Z,17.52
2019-06-10T03:02:18.282Z,17.64
2019-06-10T03:04:46.473Z,17.70
2019-06-10T03:07:15.787Z,17.79
2019-06-10T03:09:42.998Z,17.78
2019-06-10T03:12:12.212Z,17.72
2019-06-10T03:14:42.136Z,17.63
2019-06-10T03:17:12.670Z,17.67
2019-06-10T03:19:49.515Z,17.77
2019-06-10T03:22:09.105Z,17.91
2019-06-10T03:24:36.283Z,17.83
2019-06-10T03:27:03.930Z,17.76
2019-06-10T03:29:32.733Z,17.75
2019-06-10T03:32:04.502Z,17.65
2019-06-10T03:34:36.320Z,17.65
2019-06-10T03:36:58.387Z,17.58
2019-06-10T03:39:27.351Z,17.65
2019-06-10T03:41:54.877Z,17.64
2019-06-10T03:44:24.840Z,17.66
2019-06-10T03:46:52.345Z,17.78
2019-06-10T03:49:21.309Z,17.80
2019-06-10T03:51:52.950Z,17.80
2019-06-10T03:54:24.425Z,17.78
2019-06-10T03:56:51.978Z,17.81
2019-06-10T03:59:19.257Z,17.84
2019-06-10T04:01:46.776Z,17.90
2019-06-10T04:04:13.947Z,17.95
2019-06-10T04:06:44.188Z,18.00
2019-06-10T04:09:12.074Z,17.98
2019-06-10T04:11:39.497Z,17.91
2019-06-10T04:14:06.658Z,17.85
2019-06-10T04:16:33.803Z,17.91
2019-06-10T04:19:02.506Z,17.80
2019-06-10T04:21:29.934Z,17.73
2019-06-10T04:23:57.120Z,17.65
2019-06-10T04:26:25.754Z,17.68
2019-06-10T04:28:53.480Z,17.90
2019-06-10T04:31:23.027Z,18.14
2019-06-10T04:33:52.252Z,20.00
2019-06-10T04:36:18.827Z,22.11
2019-06-10T04:38:45.903Z,23.86
2019-06-10T04:41:13.118Z,25.93
2019-06-10T04:43:42.949Z,27.80
2019-06-10T04:46:09.469Z,29.58
2019-06-10T04:48:36.658Z,31.12
2019-06-10T04:51:04.085Z,32.30
2019-06-10T04:53:32.967Z,33.03
2019-06-10T04:56:02.701Z,31.79
2019-06-10T04:58:30.329Z,30.46
2019-06-10T05:00:58.479Z,30.58
2019-06-10T05:03:26.821Z,30.90
2019-06-10T05:05:54.720Z,30.35
2019-06-10T05:08:23.918Z,29.70
2019-06-10T05:10:52.929Z,30.82
2019-06-10T05:13:21.842Z,31.73
2019-06-10T05:15:49.246Z,31.64
2019-06-10T05:18:16.426Z,31.14
2019-06-10T05:20:54.068Z,31.38
2019-06-10T05:23:13.048Z,31.74
2019-06-10T05:25:42.643Z,32.77
2019-06-10T05:28:09.257Z,32.23
2019-06-10T05:30:36.416Z,31.97
2019-06-10T05:33:03.472Z,33.44
2019-06-10T05:35:31.598Z,35.09
2019-06-10T05:38:02.232Z,36.75
2019-06-10T05:40:29.385Z,36.12
2019-06-10T05:42:56.677Z,36.39
2019-06-10T05:45:25.886Z,35.06
2019-06-10T05:47:53.153Z,33.51
2019-06-10T05:50:22.496Z,31.64
2019-06-10T05:52:51.992Z,29.94
2019-06-10T05:55:18.943Z,28.46
2019-06-10T05:57:46.119Z,27.29
2019-06-10T06:00:15.145Z,26.28
2019-06-10T06:02:43.237Z,25.56
2019-06-10T06:05:12.896Z,24.89
2019-06-10T06:07:42.151Z,24.36
2019-06-10T06:10:09.668Z,23.99
2019-06-10T06:12:37.871Z,23.50
2019-06-10T06:15:05.565Z,23.07
2019-06-10T06:17:35.106Z,22.67
2019-06-10T06:20:02.878Z,22.35
2019-06-10T06:22:34.041Z,22.19
2019-06-10T06:24:59.842Z,22.14
2019-06-10T06:27:28.690Z,22.14
2019-06-10T06:29:56.035Z,22.13
2019-06-10T06:32:23.715Z,22.07
2019-06-10T06:34:52.688Z,22.15
2019-06-10T06:37:20.294Z,22.15
2019-06-10T06:39:47.587Z,22.15
2019-06-10T06:42:14.864Z,21.99
2019-06-10T06:44:43.334Z,21.87
2019-06-10T06:47:13.055Z,21.64
2019-06-10T06:49:39.885Z,21.56
2019-06-10T06:52:07.049Z,21.57
2019-06-10T06:54:36.107Z,21.67
2019-06-10T06:57:03.694Z,21.98
2019-06-10T06:59:33.807Z,22.64
2019-06-10T07:02:00.021Z,23.44
2019-06-10T07:04:27.238Z,24.51
2019-06-10T07:06:55.707Z,25.14
2019-06-10T07:09:23.751Z,25.74
2019-06-10T07:11:52.958Z,26.29
2019-06-10T07:14:20.212Z,26.63
2019-06-10T07:16:47.503Z,26.80
2019-06-10T07:19:23.256Z,26.77
2019-06-10T07:22:08.628Z,26.68
2019-06-10T07:24:23.155Z,28.21
2019-06-10T07:27:57.318Z,31.93
2019-06-10T07:30:36.867Z,35.64
2019-06-10T07:33:04.020Z,36.54
2019-06-10T07:35:32.990Z,36.39
2019-06-10T07:38:02.815Z,36.75
2019-06-10T07:40:29.609Z,38.26
2019-06-10T07:42:58.353Z,39.44
2019-06-10T07:45:25.960Z,38.80
2019-06-10T07:47:54.181Z,37.85
2019-06-10T07:50:22.728Z,37.48
2019-06-10T07:52:50.031Z,38.15
2019-06-10T07:55:17.391Z,38.73
2019-06-10T07:57:45.696Z,38.62
2019-06-10T08:00:15.155Z,38.92
2019-06-10T08:02:46.110Z,37.09
2019-06-10T08:05:15.297Z,35.60
2019-06-10T08:07:45.117Z,34.59
2019-06-10T08:10:13.287Z,34.87
2019-06-10T08:12:48.415Z,36.25
2019-06-10T08:15:28.952Z,37.57
2019-06-10T08:18:04.522Z,38.20
2019-06-10T08:20:47.721Z,36.60
2019-06-10T08:23:17.119Z,34.28
2019-06-10T08:25:51.013Z,31.62
2019-06-10T08:28:14.897Z,30.50
2019-06-10T08:30:46.113Z,29.68
2019-06-10T08:33:16.454Z,29.28
2019-06-10T08:35:53.266Z,29.40
2019-06-10T08:38:13.208Z,29.87
2019-06-10T08:40:41.137Z,30.98
2019-06-10T08:43:09.670Z,33.12
2019-06-10T08:45:36.975Z,34.29
2019-06-10T08:48:04.664Z,34.84
2019-06-10T08:50:33.653Z,34.54
2019-06-10T08:53:13.925Z,33.64
2019-06-10T08:55:33.517Z,32.44
2019-06-10T08:58:02.778Z,32.99
2019-06-10T09:00:30.462Z,35.43
2019-06-10T09:02:58.201Z,36.79
2019-06-10T09:05:25.445Z,37.69
2019-06-10T09:07:54.494Z,37.49
2019-06-10T09:10:22.776Z,36.76
2019-06-10T09:12:54.188Z,36.05
2019-06-10T09:15:19.938Z,35.13
2019-06-10T09:17:49.573Z,34.73
2019-06-10T09:20:16.805Z,34.52
2019-06-10T09:22:48.552Z,34.73
2019-06-10T09:25:15.206Z,35.03
2019-06-10T09:27:44.973Z,35.85
2019-06-10T09:30:13.522Z,36.44
2019-06-10T09:32:42.679Z,38.32
2019-06-10T09:35:12.599Z,40.04
2019-06-10T09:37:39.985Z,38.90
2019-06-10T09:40:12.337Z,37.16
2019-06-10T09:42:41.569Z,35.41
2019-06-10T09:45:09.938Z,33.56
2019-06-10T09:47:37.816Z,32.27
2019-06-10T09:50:06.768Z,31.33
2019-06-10T09:52:34.085Z,30.48
2019-06-10T09:55:02.670Z,29.93
2019-06-10T09:57:32.181Z,30.30
2019-06-10T09:59:59.568Z,30.92
2019-06-10T10:02:26.759Z,30.91
2019-06-10T10:04:58.265Z,31.23
2019-06-10T10:07:23.315Z,31.21
2019-06-10T10:09:56.880Z,30.97
2019-06-10T10:12:22.770Z,30.91
2019-06-10T10:14:56.347Z,30.49
2019-06-10T10:17:23.829Z,31.02
2019-06-10T10:19:56.861Z,31.54
2019-06-10T10:22:24.579Z,31.67
2019-06-10T10:24:55.152Z,31.40
2019-06-10T10:27:23.375Z,31.04
2019-06-10T10:29:55.062Z,30.71
2019-06-10T10:32:22.502Z,30.74
2019-06-10T10:34:50.250Z,31.16
2019-06-10T10:37:18.798Z,31.41
2019-06-10T10:39:46.667Z,31.12
2019-06-10T10:42:13.946Z,30.90
2019-06-10T10:44:44.369Z,30.91
2019-06-10T10:47:12.446Z,31.18
2019-06-10T10:49:39.868Z,31.77
2019-06-10T10:52:09.411Z,31.82
2019-06-10T10:54:37.038Z,31.51
2019-06-10T10:57:04.377Z,30.90
2019-06-10T10:59:33.327Z,30.28
2019-06-10T11:02:02.347Z,30.06
2019-06-10T11:04:32.840Z,29.63
2019-06-10T11:07:01.175Z,29.51
2019-06-10T11:09:29.411Z,29.99
2019-06-10T11:11:58.393Z,30.44
2019-06-10T11:14:28.071Z,30.90
2019-06-10T11:16:58.475Z,31.13
2019-06-10T11:19:25.561Z,30.82
2019-06-10T11:21:53.857Z,29.84
2019-06-10T11:24:33.565Z,28.89
2019-06-10T11:26:54.515Z,28.58
2019-06-10T11:29:20.375Z,28.60
2019-06-10T11:31:48.983Z,28.81
2019-06-10T11:34:19.658Z,29.08
2019-06-10T11:36:47.981Z,29.15
2019-06-10T11:39:15.909Z,29.14
2019-06-10T11:41:43.786Z,29.40
2019-06-10T11:44:11.192Z,29.38
2019-06-10T11:46:38.417Z,29.15
2019-06-10T11:49:05.921Z,29.01
2019-06-10T11:51:33.294Z,28.66
2019-06-10T11:54:03.212Z,27.95
2019-06-10T11:56:33.452Z,27.43
2019-06-10T11:59:03.130Z,27.04
2019-06-10T12:01:29.187Z,26.87
2019-06-10T12:03:58.828Z,26.85
2019-06-10T12:06:25.638Z,26.99
2019-06-10T12:08:55.383Z,27.20
2019-06-10T12:11:23.187Z,27.72
2019-06-10T12:13:57.814Z,28.69
2019-06-10T12:17:14.817Z,29.70
2019-06-10T12:18:54.200Z,30.25
2019-06-10T12:21:23.686Z,30.48
2019-06-10T12:23:55.923Z,30.05
2019-06-10T12:26:23.419Z,29.38
2019-06-10T12:28:54.666Z,28.85
2019-06-10T12:31:23.177Z,28.01
2019-06-10T12:33:55.286Z,27.69
2019-06-10T12:36:23.703Z,28.07
2019-06-10T12:38:53.382Z,28.32
2019-06-10T12:41:23.040Z,28.38
2019-06-10T12:43:50.052Z,28.52
2019-06-10T12:46:17.544Z,28.36
2019-06-10T12:48:47.881Z,28.10
2019-06-10T12:51:15.168Z,28.27
2019-06-10T12:53:43.147Z,28.53
2019-06-10T12:56:14.556Z,28.76
2019-06-10T12:58:42.860Z,28.83
2019-06-10T13:01:09.215Z,28.74
2019-06-10T13:03:36.416Z,28.42
2019-06-10T13:06:07.147Z,28.41
2019-06-10T13:08:34.565Z,28.55
2019-06-10T13:11:02.210Z,28.68
2019-06-10T13:13:29.646Z,28.80
2019-06-10T13:15:58.115Z,29.17
2019-06-10T13:18:25.589Z,29.14
2019-06-10T13:20:53.751Z,29.00
2019-06-10T13:23:29.035Z,28.88
2019-06-10T13:25:57.290Z,28.74
2019-06-10T13:28:22.101Z,28.27
2019-06-10T13:30:48.921Z,28.04
2019-06-10T13:33:16.107Z,28.02
2019-06-10T13:35:44.263Z,28.01
2019-06-10T13:38:11.842Z,27.89
2019-06-10T13:40:39.242Z,28.00
2019-06-10T13:43:06.440Z,28.17
2019-06-10T13:45:36.182Z,28.35
2019-06-10T13:48:07.816Z,28.28
2019-06-10T13:50:32.916Z,28.29
2019-06-10T13:53:01.142Z,28.44
2019-06-10T13:55:29.528Z,28.52
2019-06-10T13:57:57.118Z,28.53
2019-06-10T14:00:40.459Z,28.48
2019-06-10T14:02:53.955Z,28.50
2019-06-10T14:05:23.649Z,28.57
2019-06-10T14:07:52.080Z,28.63
2019-06-10T14:10:22.501Z,28.21
2019-06-10T14:12:49.200Z,28.07
2019-06-10T14:15:17.210Z,28.19
2019-06-10T14:17:44.544Z,28.03
2019-06-10T14:20:15.291Z,28.13
2019-06-10T14:22:42.514Z,28.26
2019-06-10T14:25:14.125Z,28.00
2019-06-10T14:27:42.529Z,27.90
2019-06-10T14:30:09.803Z,27.64
2019-06-10T14:32:37.394Z,27.23
2019-06-10T14:35:07.026Z,26.96
2019-06-10T14:37:39.094Z,26.85
2019-06-10T14:40:05.754Z,26.60
2019-06-10T14:42:33.716Z,26.43
2019-06-10T14:45:00.935Z,26.32
2019-06-10T14:47:28.377Z,26.18
2019-06-10T14:49:56.875Z,26.05
2019-06-10T14:52:24.057Z,25.83
2019-06-10T14:54:53.206Z,25.64
2019-06-10T14:57:22.691Z,25.46
2019-06-10T14:59:49.445Z,25.29
2019-06-10T15:02:17.521Z,25.04
2019-06-10T15:04:44.697Z,24.88
2019-06-10T15:07:13.626Z,24.80
2019-06-10T15:09:43.145Z,24.70
2019-06-10T15:12:10.228Z,24.65
2019-06-10T15:14:37.444Z,24.68
2019-06-10T15:17:04.770Z,24.74
2019-06-10T15:19:33.285Z,24.75
2019-06-10T15:22:02.869Z,24.69
2019-06-10T15:24:29.908Z,24.59
2019-06-10T15:27:09.106Z,24.64
2019-06-10T15:29:26.395Z,24.77
2019-06-10T15:32:09.169Z,24.91
2019-06-10T15:34:23.148Z,24.92
2019-06-10T15:36:52.590Z,24.75
2019-06-10T15:39:23.789Z,24.66
2019-06-10T15:41:48.651Z,24.52
2019-06-10T15:44:28.421Z,24.24
2019-06-10T15:46:44.985Z,24.09
2019-06-10T15:49:16.378Z,24.01
2019-06-10T15:51:43.536Z,23.88
2019-06-10T15:54:15.374Z,23.77
2019-06-10T15:56:48.691Z,23.70
2019-06-10T15:59:08.888Z,23.59
2019-06-10T16:01:36.231Z,23.55
2019-06-10T16:04:03.518Z,23.46
2019-06-10T16:06:32.906Z,23.33
2019-06-10T16:09:00.285Z,23.27
2019-06-10T16:11:27.522Z,23.24
2019-06-10T16:13:54.707Z,23.24
2019-06-10T16:16:23.091Z,23.26
2019-06-10T16:18:52.421Z,23.27
2019-06-10T16:21:20.712Z,23.32
2019-06-10T16:23:48.960Z,23.53
2019-06-10T16:26:16.304Z,23.65
2019-06-10T16:28:43.663Z,23.88
2019-06-10T16:31:13.081Z,24.07
2019-06-10T16:33:40.126Z,24.20
2019-06-10T16:36:07.454Z,24.22
2019-06-10T16:38:35.245Z,24.23
2019-06-10T16:41:03.506Z,24.24
2019-06-10T16:43:33.461Z,24.21
2019-06-10T16:46:00.334Z,23.99
2019-06-10T16:48:27.556Z,23.76
2019-06-10T16:50:54.690Z,23.60
2019-06-10T16:53:26.744Z,23.57
2019-06-10T16:55:52.943Z,23.51
2019-06-10T16:58:23.343Z,23.43
2019-06-10T17:00:49.593Z,23.33
2019-06-10T17:03:18.352Z,23.29
2019-06-10T17:05:45.611Z,23.20
2019-06-10T17:08:12.878Z,23.13
2019-06-10T17:10:40.104Z,23.04
2019-06-10T17:13:09.227Z,22.96
2019-06-10T17:15:36.695Z,22.83
2019-06-10T17:18:04.113Z,22.72
2019-06-10T17:20:34.113Z,22.68
2019-06-10T17:23:20.898Z,22.55
2019-06-10T17:25:50.001Z,22.40
2019-06-10T17:28:18.590Z,22.30
2019-06-10T17:30:46.438Z,22.23
2019-06-10T17:33:13.717Z,22.23
2019-06-10T17:35:43.089Z,22.27
2019-06-10T17:38:12.232Z,22.33
2019-06-10T17:40:39.538Z,22.35
2019-06-10T17:43:06.701Z,22.31
2019-06-10T17:45:33.943Z,22.13
2019-06-10T17:48:03.099Z,22.11
2019-06-10T17:50:32.480Z,21.99
2019-06-10T17:52:59.234Z,21.82
2019-06-10T17:55:27.730Z,21.65
2019-06-10T17:57:55.765Z,21.57
2019-06-10T18:00:24.731Z,21.50
2019-06-10T18:02:53.599Z,21.46
2019-06-10T18:05:22.498Z,21.33
2019-06-10T18:07:50.052Z,21.27
2019-06-10T18:10:17.537Z,21.30
2019-06-10T18:12:44.637Z,21.23
2019-06-10T18:15:12.511Z,21.20
2019-06-10T18:17:39.812Z,21.30
2019-06-10T18:20:07.438Z,21.28
2019-06-10T18:22:37.031Z,21.27
2019-06-10T18:25:04.518Z,21.34
2019-06-10T18:27:34.089Z,21.27
2019-06-10T18:30:02.474Z,21.21
2019-06-10T18:32:32.463Z,21.16
2019-06-10T18:34:59.326Z,21.18
2019-06-10T18:37:26.612Z,21.18
2019-06-10T18:39:53.749Z,21.17
2019-06-10T18:42:23.601Z,20.97
2019-06-10T18:44:52.237Z,20.84
2019-06-10T18:47:19.598Z,20.74
2019-06-10T18:49:46.837Z,20.63
2019-06-10T18:52:14.434Z,20.53
2019-06-10T18:54:43.518Z,20.44
2019-06-10T18:57:10.891Z,20.39
2019-06-10T18:59:39.538Z,20.32
2019-06-10T19:02:07.177Z,20.19
2019-06-10T19:04:36.494Z,20.06
2019-06-10T19:07:03.783Z,20.05
2019-06-10T19:09:33.519Z,19.95
2019-06-10T19:12:00.094Z,19.93
2019-06-10T19:14:27.750Z,19.82
2019-06-10T19:16:54.944Z,19.73
2019-06-10T19:19:22.884Z,19.70
2019-06-10T19:22:04.665Z,19.68
2019-06-10T19:24:25.358Z,19.61
2019-06-10T19:26:53.139Z,19.57
2019-06-10T19:29:32.647Z,19.54
2019-06-10T19:31:49.642Z,19.48
2019-06-10T19:34:17.302Z,19.44
2019-06-10T19:36:44.535Z,19.35
2019-06-10T19:39:13.137Z,19.28
2019-06-10T19:41:46.652Z,19.23
2019-06-10T19:44:09.826Z,19.19
2019-06-10T19:46:37.752Z,19.15
2019-06-10T19:49:07.174Z,19.18
2019-06-10T19:51:34.712Z,19.14
2019-06-10T19:54:03.696Z,19.13
2019-06-10T19:56:31.529Z,19.19
2019-06-10T19:58:58.705Z,19.26
2019-06-10T20:01:26.027Z,19.16
2019-06-10T20:03:53.245Z,19.13
2019-06-10T20:06:20.750Z,19.13
2019-06-10T20:08:47.949Z,19.19
2019-06-10T20:11:15.307Z,19.23
2019-06-10T20:13:43.784Z,19.20
2019-06-10T20:16:12.161Z,19.15
2019-06-10T20:18:40.474Z,19.03
2019-06-10T20:21:08.142Z,18.92
2019-06-10T20:23:35.422Z,18.83
2019-06-10T20:26:02.801Z,18.80
2019-06-10T20:28:32.196Z,18.71
2019-06-10T20:30:59.377Z,18.63
2019-06-10T20:33:37.024Z,18.56
2019-06-10T20:36:07.572Z,18.45
2019-06-10T20:38:33.612Z,18.36
2019-06-10T20:41:02.684Z,18.42
2019-06-10T20:43:32.644Z,18.38
2019-06-10T20:45:59.415Z,18.28
2019-06-10T20:48:26.685Z,18.30
2019-06-10T20:50:53.813Z,18.30
2019-06-10T20:53:21.038Z,18.44
2019-06-10T20:55:54.453Z,18.32
2019-06-10T20:58:17.381Z,18.26
2019-06-10T21:00:51.039Z,18.21
2019-06-10T21:03:14.314Z,18.26
2019-06-10T21:05:45.659Z,18.36
2019-06-10T21:08:14.084Z,18.47
2019-06-10T21:10:44.686Z,18.45
2019-06-10T21:13:12.331Z,18.34
2019-06-10T21:15:40.570Z,18.28
2019-06-10T21:18:09.285Z,18.22
2019-06-10T21:20:36.358Z,18.24
2019-06-10T21:23:03.985Z,18.22
2019-06-10T21:25:32.463Z,18.20
2019-06-10T21:28:02.738Z,18.19
2019-06-10T21:30:40.708Z,18.14
2019-06-10T21:32:59.467Z,18.05
2019-06-10T21:35:26.716Z,17.99
2019-06-10T21:37:53.919Z,17.88
2019-06-10T21:40:21.176Z,17.68
2019-06-10T21:42:48.347Z,17.52
2019-06-10T21:45:15.747Z,17.39
2019-06-10T21:47:44.423Z,17.32
2019-06-10T21:50:12.541Z,17.36
2019-06-10T21:52:40.090Z,17.35
2019-06-10T21:55:07.406Z,17.39
2019-06-10T21:57:35.517Z,17.52
2019-06-10T22:00:10.632Z,17.61
2019-06-10T22:02:34.019Z,17.67
2019-06-10T22:05:03.379Z,17.64
2019-06-10T22:07:32.843Z,17.79
2019-06-10T22:10:02.347Z,17.78
2019-06-10T22:12:29.015Z,17.74
2019-06-10T22:14:56.322Z,17.75
2019-06-10T22:17:23.588Z,17.80
2019-06-10T22:19:53.177Z,17.83
2019-06-10T22:22:19.854Z,17.97
2019-06-10T22:24:47.086Z,18.01
2019-06-10T22:27:14.359Z,17.95
2019-06-10T22:29:42.678Z,17.86
2019-06-10T22:32:12.903Z,17.89
2019-06-10T22:34:42.123Z,18.09
2019-06-10T22:37:09.468Z,18.03
2019-06-10T22:39:36.788Z,18.04
2019-06-10T22:42:04.031Z,17.98
2019-06-10T22:44:33.083Z,17.94
2019-06-10T22:47:02.787Z,17.92
2019-06-10T22:49:29.676Z,17.90
2019-06-10T22:51:58.565Z,17.82
2019-06-10T22:54:26.151Z,17.81
2019-06-10T22:56:56.220Z,17.65
2019-06-10T22:59:23.023Z,17.70
2019-06-10T23:01:53.575Z,17.65
2019-06-10T23:04:19.408Z,17.62
2019-06-10T23:06:46.575Z,17.54
2019-06-10T23:09:13.910Z,17.51
2019-06-10T23:11:42.418Z,17.49
2019-06-10T23:14:12.250Z,17.51
2019-06-10T23:16:38.879Z,17.56
2019-06-10T23:19:06.038Z,17.59
2019-06-10T23:21:33.300Z,17.53
2019-06-10T23:24:02.964Z,17.54
2019-06-10T23:26:29.708Z,17.54
2019-06-10T23:28:58.502Z,17.58
2019-06-10T23:31:25.886Z,17.61
2019-06-10T23:33:56.256Z,17.55
2019-06-10T23:36:23.533Z,17.54
2019-06-10T23:38:50.961Z,17.63
2019-06-10T23:41:18.009Z,17.73
2019-06-10T23:43:45.306Z,17.65
2019-06-10T23:46:12.509Z,17.57
2019-06-10T23:48:39.685Z,17.50
2019-06-10T23:51:06.783Z,17.47
2019-06-10T23:53:34.434Z,17.45
2019-06-10T23:56:04.712Z,17.43
2019-06-10T23:58:32.872Z,17.43
